Time;durP1;ratioP1;P1;durP2;ratioP2;P2;SDS_P1;SDS_P2;PMS_P1;PMS_P2;Temp;Humidity;BMP_temperature;BMP_pressure;BME280_temperature;BME280_humidity;BME280_pressure;Samples;Min_cycle;Max_cycle;Signal;HPM_P1;HPM_P2
2023/11/15 00:00:52;;;;;;;8.20;2.90;;;;;;;10.13;80.36;98503.70;131208;1250;107952;-78
2023/11/15 00:04:20;;;;;;;8.10;3.60;;;;;;;10.11;80.67;98511.66;131227;1254;110039;-80
2023/11/15 00:07:25;;;;;;;8.20;2.90;;;;;;;10.08;80.52;98507.98;131198;1254;107174;-78
2023/11/15 00:10:32;;;;;;;8.50;3.20;;;;;;;10.06;81.04;98508.91;131156;1253;107519;-78
2023/11/15 00:13:37;;;;;;;8.70;3.20;;;;;;;10.07;81.15;98508.20;131164;1255;105634;-78
2023/11/15 00:16:43;;;;;;;10.00;3.40;;;;;;;10.09;81.02;98503.52;131114;1258;107713;-80
2023/11/15 00:19:49;;;;;;;7.50;3.60;;;;;;;10.11;81.12;98501.58;131248;1256;109277;-80
2023/11/15 00:22:55;;;;;;;10.00;3.70;;;;;;;10.10;81.04;98498.48;131102;1254;108720;-78
2023/11/15 00:26:00;;;;;;;7.40;3.10;;;;;;;10.08;81.51;98498.36;131056;1262;107570;-78
2023/11/15 00:29:06;;;;;;;6.50;2.80;;;;;;;10.06;81.24;98500.35;131024;1263;108667;-79
2023/11/15 00:32:12;;;;;;;5.90;2.90;;;;;;;10.07;81.62;98494.17;131112;1254;107671;-78
2023/11/15 00:35:18;;;;;;;8.80;3.10;;;;;;;10.11;81.27;98494.23;131109;1254;107755;-78
2023/11/15 00:38:27;;;;;;;7.10;3.30;;;;;;;10.11;81.66;98487.69;131189;1251;107657;-77
2023/11/15 00:41:33;;;;;;;6.30;3.10;;;;;;;10.09;81.80;98489.84;131197;1263;108724;-78
2023/11/15 00:44:39;;;;;;;9.00;3.60;;;;;;;10.05;81.74;98485.33;131065;1249;107729;-78
2023/11/15 00:47:45;;;;;;;6.00;2.90;;;;;;;9.97;81.94;98484.62;131128;1263;107666;-78
2023/11/15 00:50:51;;;;;;;8.60;3.10;;;;;;;9.90;82.14;98483.73;131163;1254;107250;-79
2023/11/15 00:53:57;;;;;;;7.20;2.80;;;;;;;9.88;82.42;98482.86;131147;1263;107974;-79
2023/11/15 00:57:02;;;;;;;7.00;3.40;;;;;;;9.87;82.23;98482.45;131005;1254;106917;-79
2023/11/15 01:00:23;;;;;;;10.20;3.70;;;;;;;9.87;82.05;98479.36;131282;1253;107263;-78
2023/11/15 01:03:30;;;;;;;8.30;3.40;;;;;;;9.86;82.26;98479.61;131155;1262;108710;-78
2023/11/15 01:06:35;;;;;;;6.90;3.50;;;;;;;9.81;81.91;98476.42;131369;1252;107686;-79
2023/11/15 01:09:41;;;;;;;5.70;2.90;;;;;;;9.76;82.26;98480.09;131039;1265;106552;-79
2023/11/15 01:12:47;;;;;;;5.30;2.50;;;;;;;9.72;82.41;98477.63;131122;1253;108626;-79
2023/11/15 01:15:53;;;;;;;6.60;2.80;;;;;;;9.73;82.17;98481.79;131066;1251;108486;-79
2023/11/15 01:18:58;;;;;;;6.20;2.80;;;;;;;9.75;82.31;98480.17;131124;1254;107604;-79
2023/11/15 01:22:04;;;;;;;7.60;2.90;;;;;;;9.79;82.36;98482.74;131144;1263;108600;-77
2023/11/15 01:25:12;;;;;;;5.90;2.90;;;;;;;9.78;82.35;98486.10;131091;1263;107888;-78
2023/11/15 01:28:18;;;;;;;5.70;3.10;;;;;;;9.75;82.49;98486.31;131114;1254;108630;-78
2023/11/15 01:31:23;;;;;;;5.60;2.80;;;;;;;9.72;82.54;98481.50;131077;1253;108434;-78
2023/11/15 01:34:29;;;;;;;5.60;2.80;;;;;;;9.73;82.78;98482.23;131063;1254;107653;-78
2023/11/15 01:37:34;;;;;;;10.70;3.10;;;;;;;9.76;82.79;98480.59;131180;1251;108592;-78
2023/11/15 01:40:40;;;;;;;5.40;2.70;;;;;;;9.80;82.68;98482.59;131126;1256;108586;-77
2023/11/15 01:43:46;;;;;;;7.20;3.10;;;;;;;9.86;82.77;98480.48;131133;1254;108562;-78
2023/11/15 01:46:52;;;;;;;8.50;3.40;;;;;;;9.90;83.10;98477.88;131136;1263;107814;-78
2023/11/15 01:49:59;;;;;;;6.60;3.00;;;;;;;9.94;82.87;98482.14;131141;1261;108645;-78
2023/11/15 01:53:04;;;;;;;6.60;2.90;;;;;;;9.95;82.69;98483.20;131300;1263;107775;-79
2023/11/15 01:56:11;;;;;;;7.90;2.40;;;;;;;9.96;82.98;98484.00;131126;1252;108540;-78
2023/11/15 01:59:16;;;;;;;7.50;2.90;;;;;;;9.98;83.05;98485.33;131047;1251;108561;-80
2023/11/15 02:02:22;;;;;;;5.60;2.70;;;;;;;10.01;83.51;98478.88;131179;1251;106528;-79
2023/11/15 02:05:28;;;;;;;7.20;3.20;;;;;;;10.05;83.34;98479.55;131215;1254;108694;-79
2023/11/15 02:08:33;;;;;;;6.00;2.80;;;;;;;10.06;83.50;98477.77;131189;1254;108581;-79
2023/11/15 02:11:39;;;;;;;6.50;3.20;;;;;;;10.04;83.43;98479.46;131184;1252;106771;-79
2023/11/15 02:14:45;;;;;;;5.80;3.10;;;;;;;10.02;83.41;98481.87;131075;1254;106965;-79
2023/11/15 02:17:51;;;;;;;5.00;2.40;;;;;;;10.00;83.71;98480.48;131057;1251;107718;-79
2023/11/15 02:20:57;;;;;;;6.30;2.80;;;;;;;10.02;83.61;98481.70;131234;1251;106560;-79
2023/11/15 02:24:03;;;;;;;5.40;2.50;;;;;;;10.06;83.59;98486.13;131128;1251;108562;-79
2023/11/15 02:27:09;;;;;;;5.30;2.70;;;;;;;10.11;83.73;98486.20;131199;1254;106713;-78
2023/11/15 02:30:15;;;;;;;6.40;2.70;;;;;;;10.14;83.60;98491.39;131143;1253;107008;-78
2023/11/15 02:33:21;;;;;;;4.80;2.80;;;;;;;10.14;83.62;98494.39;131150;1254;108697;-78
2023/11/15 02:36:27;;;;;;;5.70;2.40;;;;;;;10.13;83.99;98490.41;131081;1253;107655;-77
2023/11/15 02:39:33;;;;;;;6.30;2.30;;;;;;;10.12;84.09;98494.21;131185;1254;108521;-78
2023/11/15 02:42:38;;;;;;;6.70;2.90;;;;;;;10.13;84.01;98493.41;131137;1251;108728;-78
2023/11/15 02:45:44;;;;;;;6.50;3.10;;;;;;;10.15;84.20;98497.42;131189;1262;107672;-78
2023/11/15 02:48:49;;;;;;;5.10;2.60;;;;;;;10.18;84.08;98496.50;131061;1251;107541;-78
2023/11/15 02:51:55;;;;;;;6.20;2.60;;;;;;;10.20;83.91;98495.95;131137;1263;108487;-78
2023/11/15 02:55:00;;;;;;;6.90;3.20;;;;;;;10.17;84.06;98493.86;131194;1251;106986;-78
2023/11/15 02:58:06;;;;;;;4.90;2.50;;;;;;;10.13;83.80;98495.86;131153;1251;108484;-80
2023/11/15 03:01:12;;;;;;;5.40;2.10;;;;;;;10.12;84.13;98496.88;131110;1250;107453;-81
2023/11/15 03:04:18;;;;;;;5.90;2.50;;;;;;;10.14;84.28;98497.25;131286;1254;107632;-80
2023/11/15 03:07:24;;;;;;;5.20;2.50;;;;;;;10.16;83.99;98499.08;131144;1251;107617;-79
2023/11/15 03:10:32;;;;;;;3.90;2.50;;;;;;;10.18;84.35;98504.30;131161;1255;106975;-80
2023/11/15 03:13:38;;;;;;;8.00;2.70;;;;;;;10.20;84.63;98506.05;131113;1254;107501;-80
2023/11/15 03:16:44;;;;;;;7.10;3.20;;;;;;;10.20;84.46;98507.11;131091;1254;107417;-78
2023/11/15 03:19:50;;;;;;;6.10;2.70;;;;;;;10.18;84.30;98503.56;131038;1264;108505;-78
2023/11/15 03:22:55;;;;;;;7.10;2.50;;;;;;;10.16;84.18;98509.73;131118;1254;108665;-77
2023/11/15 03:26:01;;;;;;;8.00;3.30;;;;;;;10.15;84.25;98505.83;131098;1253;108689;-78
2023/11/15 03:29:07;;;;;;;7.00;3.00;;;;;;;10.16;84.47;98509.20;131374;1251;108595;-77
2023/11/15 03:32:12;;;;;;;7.30;3.80;;;;;;;10.19;84.35;98508.85;131251;1251;108215;-80
2023/11/15 03:35:22;;;;;;;8.10;3.60;;;;;;;10.19;84.71;98511.15;131270;1254;108713;-77
2023/11/15 03:38:27;;;;;;;5.70;3.40;;;;;;;10.19;84.35;98515.30;131156;1254;107758;-75
2023/11/15 03:41:33;;;;;;;8.10;3.70;;;;;;;10.17;84.53;98511.23;131010;1253;108464;-75
2023/11/15 17:48:06;;;;;;;8.70;6.10;;;;;;;5.52;81.55;99612.59;130278;1270;96635;-73
2023/11/15 17:51:12;;;;;;;14.70;8.30;;;;;;;5.41;81.34;99619.02;129648;1269;96678;-74
2023/11/15 17:54:21;;;;;;;22.00;13.40;;;;;;;5.30;81.70;99621.59;129714;1269;97383;-75
2023/11/15 17:57:33;;;;;;;11.90;8.60;;;;;;;5.22;81.99;99633.80;129873;1280;96634;-72
2023/11/15 18:00:42;;;;;;;14.60;9.70;;;;;;;5.14;82.22;99641.16;129836;1270;96646;-73
2023/11/15 18:03:47;;;;;;;10.70;7.60;;;;;;;5.07;82.58;99646.70;129662;1270;97823;-72
2023/11/15 18:06:53;;;;;;;11.80;7.50;;;;;;;4.98;82.63;99653.81;129753;1270;96696;-73
2023/11/15 18:09:59;;;;;;;12.30;8.50;;;;;;;4.92;83.03;99650.44;129644;1270;100177;-73
2023/11/15 18:13:05;;;;;;;13.90;9.40;;;;;;;4.92;83.00;99651.52;129673;1271;97440;-72
2023/11/15 18:16:11;;;;;;;12.60;8.30;;;;;;;4.95;82.94;99657.61;130303;1265;96708;-73
2023/11/15 18:19:20;;;;;;;14.60;9.10;;;;;;;4.92;83.15;99659.06;129865;1265;96649;-72
2023/11/15 18:22:27;;;;;;;12.80;8.60;;;;;;;4.87;83.17;99663.40;129912;1281;97299;-72
2023/11/15 18:25:32;;;;;;;17.70;11.40;;;;;;;4.81;83.36;99670.26;129717;1270;97468;-75
2023/11/15 18:28:40;;;;;;;28.70;18.70;;;;;;;4.76;83.53;99675.52;129716;1265;96627;-72
2023/11/15 18:31:46;;;;;;;28.90;19.80;;;;;;;4.72;83.60;99680.89;129716;1269;97807;-72
2023/11/15 18:34:51;;;;;;;28.20;20.10;;;;;;;4.71;83.78;99688.88;129611;1266;96711;-74
2023/11/15 18:37:57;;;;;;;16.70;11.40;;;;;;;4.71;83.87;99697.99;129637;1270;97818;-72
2023/11/15 18:41:07;;;;;;;28.00;19.80;;;;;;;4.73;83.86;99706.31;129603;1265;96731;-72
2023/11/15 18:44:15;;;;;;;43.10;28.80;;;;;;;4.70;83.64;99711.64;129810;1265;96647;-74
2023/11/15 18:47:21;;;;;;;32.30;17.80;;;;;;;4.65;83.96;99717.23;129659;1281;97552;-72
2023/11/15 18:50:27;;;;;;;50.10;26.20;;;;;;;4.58;83.97;99726.83;129622;1269;97410;-72
2023/11/15 18:53:33;;;;;;;76.70;40.20;;;;;;;4.52;83.99;99732.35;129596;1269;97692;-71
2023/11/15 18:56:38;;;;;;;28.80;14.50;;;;;;;4.51;84.13;99733.73;129636;1269;97820;-72
2023/11/15 18:59:44;;;;;;;139.80;74.10;;;;;;;4.53;84.08;99741.64;129635;1265;97297;-71
2023/11/15 19:02:50;;;;;;;47.60;22.10;;;;;;;4.55;84.02;99742.02;129598;1270;97819;-73
2023/11/15 19:05:56;;;;;;;74.50;30.20;;;;;;;4.55;84.13;99745.20;129630;1265;96672;-71
2023/11/15 19:09:01;;;;;;;37.50;17.80;;;;;;;4.56;84.08;99749.34;129586;1265;96691;-72
2023/11/15 19:12:08;;;;;;;63.90;27.70;;;;;;;4.59;84.04;99753.51;129614;1265;96858;-72
2023/11/15 19:15:14;;;;;;;46.00;20.70;;;;;;;4.56;84.16;99760.60;129678;1269;96639;-73
2023/11/15 19:18:20;;;;;;;48.30;27.90;;;;;;;4.51;84.22;99773.85;129699;1270;97736;-73
2023/11/15 19:21:27;;;;;;;64.80;26.70;;;;;;;4.52;84.29;99775.39;129602;1270;97813;-74
2023/11/15 19:24:32;;;;;;;59.70;21.30;;;;;;;4.61;84.40;99778.02;129565;1269;97424;-73
2023/11/15 19:27:38;;;;;;;59.00;20.30;;;;;;;4.74;84.40;99777.08;129415;1288;97518;-72
2023/11/15 19:30:45;;;;;;;76.40;28.40;;;;;;;4.84;84.55;99777.52;129632;1265;97846;-71
2023/11/15 19:33:52;;;;;;;76.90;26.50;;;;;;;4.92;84.35;99772.06;129471;1266;96621;-74
2023/11/15 19:36:58;;;;;;;46.60;17.60;;;;;;;5.00;84.40;99770.66;129667;1269;96682;-72
2023/11/15 19:40:08;;;;;;;22.10;10.90;;;;;;;5.06;84.37;99775.80;129618;1269;96631;-71
2023/11/15 19:43:14;;;;;;;22.80;10.50;;;;;;;5.11;84.28;99778.94;129614;1271;96710;-73
2023/11/15 19:46:19;;;;;;;55.80;16.60;;;;;;;5.14;84.25;99779.27;129673;1269;96651;-72
2023/11/15 19:49:25;;;;;;;141.70;43.50;;;;;;;5.22;84.55;99782.08;129604;1271;97847;-72
2023/11/15 19:52:31;;;;;;;68.00;29.70;;;;;;;5.30;84.53;99786.87;129569;1269;96696;-72
2023/11/15 19:55:38;;;;;;;24.60;13.40;;;;;;;5.33;84.49;99795.96;129593;1288;97712;-73
2023/11/15 19:58:43;;;;;;;50.20;21.80;;;;;;;5.32;84.41;99797.61;129636;1288;96679;-72
2023/11/15 20:01:50;;;;;;;34.60;15.60;;;;;;;5.29;84.45;99798.89;129976;1265;96954;-79
2023/11/15 20:04:55;;;;;;;52.30;21.00;;;;;;;5.25;84.31;99793.81;129728;1265;96646;-79
2023/11/15 20:08:01;;;;;;;42.00;15.70;;;;;;;5.23;84.46;99799.61;129622;1271;97323;-80
2023/11/15 20:11:10;;;;;;;35.80;14.00;;;;;;;5.19;84.53;99803.98;129602;1271;97754;-79
2023/11/15 20:14:16;;;;;;;55.80;18.60;;;;;;;5.21;84.64;99806.98;129630;1266;96756;-79
2023/11/15 20:17:21;;;;;;;74.40;23.10;;;;;;;5.34;84.73;99807.02;129808;1269;96624;-78
2023/11/15 20:20:27;;;;;;;75.40;22.40;;;;;;;5.44;84.77;99812.31;129609;1266;96626;-78
2023/11/15 20:23:34;;;;;;;80.60;26.80;;;;;;;5.52;84.58;99809.89;129602;1271;96624;-79
2023/11/15 20:26:39;;;;;;;59.10;21.70;;;;;;;5.57;84.52;99814.39;129625;1265;97734;-79
2023/11/15 20:29:45;;;;;;;50.80;17.70;;;;;;;5.58;84.42;99824.52;129651;1287;96627;-78
2023/11/15 20:32:51;;;;;;;30.30;12.70;;;;;;;5.59;84.70;99823.17;129746;1265;96631;-78
2023/11/15 20:35:56;;;;;;;24.30;10.10;;;;;;;5.61;84.61;99827.62;129622;1271;97258;-78
2023/11/15 20:39:03;;;;;;;24.30;10.70;;;;;;;5.61;84.34;99833.58;129631;1268;96643;-78
2023/11/15 20:42:10;;;;;;;32.20;12.60;;;;;;;5.62;84.55;99843.03;129713;1269;96712;-78
2023/11/15 20:45:16;;;;;;;36.20;14.20;;;;;;;5.64;84.52;99847.27;129645;1265;96644;-78
2023/11/15 20:48:22;;;;;;;25.90;10.70;;;;;;;5.63;84.25;99848.44;129576;1271;97490;-77
2023/11/15 20:51:28;;;;;;;28.40;11.80;;;;;;;5.59;84.35;99850.20;129583;1270;97888;-78
2023/11/15 20:54:36;;;;;;;30.90;13.90;;;;;;;5.54;84.29;99854.73;129611;1265;96711;-79
2023/11/15 20:57:41;;;;;;;49.80;20.40;;;;;;;5.46;84.59;99860.04;129583;1271;97852;-78
2023/11/15 21:00:47;;;;;;;36.00;17.20;;;;;;;5.42;84.67;99857.93;129622;1266;96631;-78
2023/11/15 21:03:53;;;;;;;25.50;16.40;;;;;;;5.35;84.66;99856.64;129658;1270;97826;-78
2023/11/15 21:06:59;;;;;;;34.60;19.90;;;;;;;5.23;85.06;99851.77;129810;1268;96633;-78
2023/11/15 21:10:08;;;;;;;51.60;23.90;;;;;;;5.18;85.10;99857.05;129651;1266;97114;-80
2023/11/15 21:13:14;;;;;;;27.30;14.30;;;;;;;5.16;85.32;99857.52;129647;1267;96641;-78
2023/11/15 21:16:19;;;;;;;38.80;19.70;;;;;;;5.17;85.37;99859.77;129907;1271;97513;-78
2023/11/15 21:19:25;;;;;;;27.00;14.80;;;;;;;5.17;85.38;99859.94;129606;1271;97727;-78
2023/11/15 21:22:31;;;;;;;23.60;12.10;;;;;;;5.18;85.61;99861.76;129589;1271;97415;-78
2023/11/15 21:25:37;;;;;;;16.00;9.20;;;;;;;5.14;85.72;99860.50;129587;1269;97924;-81
2023/11/15 21:28:43;;;;;;;16.80;10.30;;;;;;;5.06;85.94;99866.56;129671;1265;97725;-77
2023/11/15 21:31:50;;;;;;;13.60;9.30;;;;;;;5.00;86.29;99868.21;129651;1270;97957;-78
2023/11/15 21:34:57;;;;;;;16.60;10.20;;;;;;;4.92;86.19;99875.16;129594;1269;97852;-78
2023/11/15 21:38:03;;;;;;;16.40;10.10;;;;;;;4.88;86.51;99873.43;129715;1265;96618;-78
2023/11/15 21:41:09;;;;;;;18.10;9.70;;;;;;;4.79;86.44;99879.46;129668;1269;97266;-78
2023/11/15 21:44:16;;;;;;;21.30;13.50;;;;;;;4.70;86.50;99882.05;129732;1265;97263;-78
2023/11/15 21:47:22;;;;;;;15.60;8.50;;;;;;;4.67;86.66;99883.23;129751;1265;96627;-77
2023/11/15 21:50:27;;;;;;;12.80;8.10;;;;;;;4.64;86.47;99893.13;129595;1270;96704;-78
2023/11/15 21:53:35;;;;;;;12.00;7.90;;;;;;;4.63;86.38;99898.47;129617;1271;96714;-78
2023/11/15 21:56:41;;;;;;;13.60;8.90;;;;;;;4.63;86.16;99900.79;129629;1276;97897;-78
2023/11/15 21:59:47;;;;;;;13.50;8.70;;;;;;;4.62;86.28;99902.13;129644;1265;96666;-78
2023/11/15 22:02:52;;;;;;;14.30;9.00;;;;;;;4.58;86.45;99903.30;129703;1270;97823;-81
2023/11/15 22:05:58;;;;;;;11.90;8.20;;;;;;;4.51;86.25;99907.73;129622;1271;97436;-76
2023/11/15 22:09:04;;;;;;;13.60;8.30;;;;;;;4.43;86.46;99906.98;129615;1271;100164;-76
2023/11/15 22:12:10;;;;;;;15.00;9.10;;;;;;;4.37;86.90;99904.96;129622;1269;96619;-79
2023/11/15 22:15:16;;;;;;;15.00;9.10;;;;;;;4.32;86.83;99904.63;129655;1271;96616;-76
2023/11/15 22:18:22;;;;;;;13.10;8.90;;;;;;;4.32;86.68;99915.02;129694;1265;96719;-77
2023/11/15 22:21:28;;;;;;;15.90;9.70;;;;;;;4.33;86.62;99916.58;129652;1265;97292;-76
2023/11/15 22:24:33;;;;;;;20.50;12.10;;;;;;;4.33;86.47;99924.09;129623;1265;96624;-79
2023/11/15 22:27:39;;;;;;;82.60;37.40;;;;;;;4.31;86.57;99929.06;129620;1270;96705;-76
2023/11/15 22:30:44;;;;;;;20.70;10.90;;;;;;;4.27;86.30;99932.35;129629;1271;96717;-77
2023/11/15 22:33:51;;;;;;;14.90;10.00;;;;;;;4.20;86.69;99932.02;129644;1271;97804;-77
2023/11/15 22:36:57;;;;;;;20.30;11.80;;;;;;;4.15;86.53;99935.61;129620;1265;96928;-76
2023/11/15 22:40:03;;;;;;;19.70;12.00;;;;;;;4.12;86.79;99934.06;129631;1265;96732;-76
2023/11/15 22:43:09;;;;;;;16.50;10.70;;;;;;;4.06;86.96;99936.45;129604;1269;96624;-76
2023/11/15 22:46:14;;;;;;;16.70;11.10;;;;;;;4.02;87.00;99936.63;129664;1271;97437;-76
2023/11/15 22:49:21;;;;;;;16.90;11.10;;;;;;;3.96;87.12;99940.60;129685;1271;97422;-76
2023/11/15 22:52:27;;;;;;;18.60;10.90;;;;;;;3.88;87.15;99952.23;129590;1269;96700;-76
2023/11/15 22:55:32;;;;;;;15.30;10.10;;;;;;;3.86;87.12;99962.24;129590;1270;97870;-78
2023/11/15 22:58:38;;;;;;;18.80;10.40;;;;;;;3.86;87.09;99969.67;129606;1270;97311;-76
2023/11/15 23:01:43;;;;;;;17.50;10.30;;;;;;;3.90;87.30;99974.59;129630;1269;97801;-79
2023/11/15 23:04:49;;;;;;;18.60;10.90;;;;;;;3.92;86.93;99983.60;129615;1270;96650;-79
2023/11/15 23:07:55;;;;;;;16.70;10.60;;;;;;;3.93;87.12;99983.54;129597;1270;96653;-79
2023/11/15 23:11:01;;;;;;;17.30;9.90;;;;;;;3.87;87.06;99982.39;129452;1270;96712;-77
2023/11/15 23:14:07;;;;;;;19.30;10.80;;;;;;;3.80;87.03;99982.23;129644;1270;96637;-77
2023/11/15 23:17:12;;;;;;;15.90;10.60;;;;;;;3.75;87.10;99983.53;129504;1265;96644;-76
2023/11/15 23:20:18;;;;;;;15.80;9.70;;;;;;;3.68;87.28;99986.85;129696;1271;97693;-77
2023/11/15 23:23:24;;;;;;;19.60;11.30;;;;;;;3.62;87.24;99988.52;129602;1270;97439;-76
2023/11/15 23:26:31;;;;;;;25.10;12.00;;;;;;;3.62;87.26;99986.41;129636;1268;96683;-77
2023/11/15 23:29:37;;;;;;;20.70;10.00;;;;;;;3.68;87.18;99989.54;129618;1269;96653;-77
2023/11/15 23:32:42;;;;;;;20.90;11.40;;;;;;;3.72;87.08;99994.77;129621;1270;96607;-77
2023/11/15 23:35:48;;;;;;;25.90;12.60;;;;;;;3.78;86.90;100001.27;129630;1272;97263;-77
2023/11/15 23:38:54;;;;;;;18.80;11.50;;;;;;;3.80;86.84;100009.90;129612;1267;96730;-79
2023/11/15 23:41:59;;;;;;;23.80;12.60;;;;;;;3.79;86.81;100018.07;129645;1267;96612;-77
2023/11/15 23:45:06;;;;;;;18.40;11.40;;;;;;;3.76;86.67;100020.89;129682;1270;96657;-77
2023/11/15 23:48:13;;;;;;;19.40;11.70;;;;;;;3.70;86.90;100021.34;129655;1271;96685;-76
2023/11/15 23:51:19;;;;;;;24.20;12.30;;;;;;;3.66;86.88;100024.10;129687;1278;97717;-78
2023/11/15 23:54:25;;;;;;;25.60;12.80;;;;;;;3.65;86.75;100024.90;129635;1269;96638;-79
2023/11/15 23:57:31;;;;;;;33.50;14.40;;;;;;;3.64;86.59;100023.24;129462;1270;216446;-78
